Thunder radar more information blitzortung!


Radar de pluja more information rain snow radar


Visita la nostra xarxa de llocs de meteo:

Template documentation
and downloads

And another site



No particular awareness of the weather is required.    There are no Weather-warnings

Pagina Historial Weather Underground text

Diari Resum Juny 12, 2017 Unitats:  Mètric    Imperial   Tant
« Previous Dia
SegĂźent Dia »
Diari Setmana Mensual Anual Personalitzada
  Maxima: Minima: Media:
Temperatura: 33.7 °C 18.3 °C 27.6 °C
Punt de rosada: 11.0 °C 6.4 °C 8.9 °C
Humitat: 51 % 22 % 32 %
Wind Speed: 22.2 km/h 0.0 km/h 6.4 km/h
RĂ fegues de vent: 22.2 km/h - -
Vent:- - South
Pression baro: 1016.8 hPa 1012.8 hPa -
Precipitacions: 0.0 mm    
Historical Graphs
 
 
Dades de taula per Juny 12, 2017
Temps Temperatura Punt de rosada Pression baro Vent Wind Speed RĂ fegues de vent Humitat Rainfall Rate (Hourly)
00:00 19.1 °C 6.9 °C 1015.8 hPa WSW 1.6 km/h 1.6 km/h 45 % 0.0 mm
00:02 22.9 °C 6.6 °C 1014.8 hPa Calm     35 % 0.0 mm
00:07 22.7 °C 6.8 °C 1014.8 hPa Calm     36 % 0.0 mm
00:10 19.2 °C 7.3 °C 1015.8 hPa Calm     46 % 0.0 mm
00:20 19.2 °C 7.3 °C 1015.8 hPa Calm   1.6 km/h 46 % 0.0 mm
00:30 19.0 °C 6.4 °C 1015.8 hPa Calm     44 % 0.0 mm
00:40 18.8 °C 6.9 °C 1015.8 hPa ESE 1.6 km/h 3.2 km/h 46 % 0.0 mm
00:50 18.8 °C 6.9 °C 1015.8 hPa ENE 3.2 km/h 3.2 km/h 46 % 0.0 mm
01:00 18.8 °C 6.9 °C 1015.8 hPa Calm     46 % 0.0 mm
01:10 18.8 °C 6.9 °C 1016.8 hPa Calm     46 % 0.0 mm
01:20 18.6 °C 6.7 °C 1015.8 hPa NE 1.6 km/h 3.2 km/h 46 % 0.0 mm
01:30 18.5 °C 6.7 °C 1015.8 hPa Calm   1.6 km/h 46 % 0.0 mm
01:40 18.4 °C 6.6 °C 1015.8 hPa SW 1.6 km/h 4.8 km/h 46 % 0.0 mm
01:50 18.3 °C 6.5 °C 1015.8 hPa SW 3.2 km/h 3.2 km/h 46 % 0.0 mm
02:00 18.6 °C 6.4 °C 1015.8 hPa WSW 1.6 km/h 3.2 km/h 45 % 0.0 mm
02:10 19.0 °C 6.4 °C 1015.8 hPa WSW 1.6 km/h 3.2 km/h 44 % 0.0 mm
02:20 19.6 °C 7.0 °C 1015.8 hPa Calm   1.6 km/h 44 % 0.0 mm
02:30 20.4 °C 7.7 °C 1015.8 hPa Calm     44 % 0.0 mm
02:40 21.2 °C 8.1 °C 1015.8 hPa Calm     43 % 0.0 mm
02:50 21.4 °C 7.6 °C 1015.8 hPa SSW 1.6 km/h 3.2 km/h 41 % 0.0 mm
03:00 21.6 °C 7.8 °C 1015.8 hPa Calm   1.6 km/h 41 % 0.0 mm
03:10 22.1 °C 8.2 °C 1016.8 hPa Calm   3.2 km/h 41 % 0.0 mm
03:20 23.2 °C 8.8 °C 1015.8 hPa Calm   1.6 km/h 40 % 0.0 mm
03:30 22.8 °C 8.5 °C 1015.8 hPa South 1.6 km/h 3.2 km/h 40 % 0.0 mm
03:40 22.9 °C 8.9 °C 1016.8 hPa SW 1.6 km/h 4.8 km/h 41 % 0.0 mm
03:50 23.2 °C 8.5 °C 1016.8 hPa Calm   4.8 km/h 39 % 0.0 mm
04:00 24.1 °C 9.3 °C 1016.8 hPa SW 1.6 km/h 1.6 km/h 39 % 0.0 mm
04:10 24.3 °C 9.4 °C 1016.8 hPa SSE 3.2 km/h 6.4 km/h 39 % 0.0 mm
04:20 25.0 °C 9.3 °C 1016.8 hPa SE 3.2 km/h 3.2 km/h 37 % 0.0 mm
04:30 25.3 °C 9.6 °C 1016.8 hPa East 3.2 km/h 3.2 km/h 37 % 0.0 mm
04:40 26.4 °C 10.6 °C 1016.8 hPa ENE 1.6 km/h 3.2 km/h 37 % 0.0 mm
04:50 26.9 °C 11.0 °C 1016.8 hPa NNE 1.6 km/h 3.2 km/h 37 % 0.0 mm
05:00 26.6 °C 10.3 °C 1016.8 hPa NE 4.8 km/h 8.0 km/h 36 % 0.0 mm
05:10 26.6 °C 9.4 °C 1016.8 hPa ENE 4.8 km/h 8.0 km/h 34 % 0.0 mm
05:20 27.8 °C 10.1 °C 1015.8 hPa ENE 3.2 km/h 3.2 km/h 33 % 0.0 mm
05:30 27.5 °C 9.3 °C 1015.8 hPa East 4.8 km/h 8.0 km/h 32 % 0.0 mm
05:40 27.7 °C 9.1 °C 1015.8 hPa ENE 4.8 km/h 8.0 km/h 31 % 0.0 mm
05:50 27.8 °C 8.6 °C 1015.8 hPa East 4.8 km/h 8.0 km/h 30 % 0.0 mm
10:57 28.3 °C 9.1 °C 1015.8 hPa ESE 7.4 km/h 7.4 km/h 30 % 0.0 mm
11:02 28.6 °C 9.3 °C 1015.8 hPa SE 7.4 km/h 7.4 km/h 30 % 0.0 mm
11:03 28.6 °C 9.3 °C 1015.8 hPa ESE 7.9 km/h 7.9 km/h 30 % 0.0 mm
11:08 28.5 °C 8.7 °C 1015.8 hPa ESE 9.3 km/h 9.3 km/h 29 % 0.0 mm
11:13 29.2 °C 9.3 °C 1015.8 hPa East 9.3 km/h 9.3 km/h 29 % 0.0 mm
11:18 29.2 °C 9.3 °C 1015.8 hPa ENE 7.4 km/h 7.4 km/h 29 % 0.0 mm
11:23 29.8 °C 9.3 °C 1015.8 hPa ESE 13.7 km/h 13.7 km/h 28 % 0.0 mm
11:28 29.8 °C 9.8 °C 1015.8 hPa East 6.1 km/h 6.1 km/h 29 % 0.0 mm
11:33 29.6 °C 9.2 °C 1015.8 hPa SE 11.1 km/h 11.1 km/h 28 % 0.0 mm
11:38 29.8 °C 8.8 °C 1015.8 hPa South 5.6 km/h 5.6 km/h 27 % 0.0 mm
11:43 30.4 °C 9.3 °C 1015.8 hPa South 9.3 km/h 9.3 km/h 27 % 0.0 mm
11:48 30.2 °C 9.1 °C 1015.8 hPa NNE 7.4 km/h 7.4 km/h 27 % 0.0 mm
11:53 30.4 °C 9.3 °C 1015.8 hPa NNE 3.7 km/h 3.7 km/h 27 % 0.0 mm
11:58 30.7 °C 9.0 °C 1015.8 hPa South 3.9 km/h 3.9 km/h 26 % 0.0 mm
12:03 30.6 °C 8.9 °C 1015.8 hPa ENE 13.0 km/h 13.0 km/h 26 % 0.0 mm
12:08 30.8 °C 9.1 °C 1015.8 hPa East 9.3 km/h 9.3 km/h 26 % 0.0 mm
12:13 30.9 °C 9.2 °C 1015.8 hPa ENE 7.4 km/h 7.4 km/h 26 % 0.0 mm
12:18 30.8 °C 9.1 °C 1015.8 hPa NNE 9.3 km/h 9.3 km/h 26 % 0.0 mm
12:23 30.7 °C 9.0 °C 1015.8 hPa ENE 6.1 km/h 8.7 km/h 26 % 0.0 mm
12:28 31.2 °C 8.8 °C 1015.8 hPa NE 9.3 km/h 9.3 km/h 25 % 0.0 mm
12:33 31.3 °C 9.5 °C 1015.8 hPa NE 7.4 km/h 7.4 km/h 26 % 0.0 mm
12:38 31.5 °C 9.7 °C 1015.8 hPa SSE 7.4 km/h 7.4 km/h 26 % 0.0 mm
12:43 31.6 °C 9.2 °C 1015.8 hPa ENE 9.3 km/h 9.3 km/h 25 % 0.0 mm
12:48 31.6 °C 9.2 °C 1015.8 hPa ESE 9.5 km/h 9.5 km/h 25 % 0.0 mm
12:53 31.5 °C 9.7 °C 1015.8 hPa ESE 10.3 km/h 10.3 km/h 26 % 0.0 mm
12:58 31.9 °C 10.0 °C 1015.8 hPa ENE 10.0 km/h 10.0 km/h 26 % 0.0 mm
13:03 31.7 °C 9.3 °C 1015.8 hPa NE 9.3 km/h 9.3 km/h 25 % 0.0 mm
13:08 32.0 °C 9.5 °C 1015.8 hPa ENE 9.3 km/h 9.3 km/h 25 % 0.0 mm
13:13 31.8 °C 9.9 °C 1015.8 hPa ENE 9.3 km/h 9.3 km/h 26 % 0.0 mm
13:18 31.6 °C 9.2 °C 1014.8 hPa NNE 11.1 km/h 11.1 km/h 25 % 0.0 mm
13:23 32.1 °C 9.0 °C 1014.8 hPa SE 11.9 km/h 11.9 km/h 24 % 0.0 mm
13:28 31.7 °C 9.3 °C 1014.8 hPa SE 14.8 km/h 14.8 km/h 25 % 0.0 mm
13:33 32.1 °C 9.6 °C 1015.8 hPa SE 22.2 km/h 22.2 km/h 25 % 0.0 mm
13:38 31.5 °C 9.7 °C 1015.8 hPa ESE 13.0 km/h 13.0 km/h 26 % 0.0 mm
13:43 31.7 °C 9.8 °C 1015.8 hPa NE 13.0 km/h 13.0 km/h 26 % 0.0 mm
13:48 31.6 °C 9.8 °C 1015.8 hPa ENE 12.6 km/h 12.6 km/h 26 % 0.0 mm
13:53 31.4 °C 9.6 °C 1015.8 hPa SE 13.0 km/h 13.0 km/h 26 % 0.0 mm
13:58 31.8 °C 9.9 °C 1015.8 hPa SSE 13.0 km/h 13.0 km/h 26 % 0.0 mm
14:03 31.6 °C 9.8 °C 1015.8 hPa ESE 13.0 km/h 13.0 km/h 26 % 0.0 mm
14:08 31.4 °C 9.6 °C 1015.8 hPa East 16.7 km/h 16.7 km/h 26 % 0.0 mm
14:13 30.9 °C 8.6 °C 1015.8 hPa ESE 20.9 km/h 20.9 km/h 25 % 0.0 mm
14:18 30.7 °C 8.4 °C 1015.8 hPa ENE 13.0 km/h 13.0 km/h 25 % 0.0 mm
14:23 30.8 °C 8.5 °C 1015.8 hPa SSE 16.9 km/h 16.9 km/h 25 % 0.0 mm
14:28 30.8 °C 8.5 °C 1015.8 hPa NNE 9.3 km/h 9.3 km/h 25 % 0.0 mm
14:33 30.7 °C 8.4 °C 1014.8 hPa ESE 16.9 km/h 16.9 km/h 25 % 0.0 mm
14:38 30.6 °C 7.7 °C 1014.8 hPa NE 16.7 km/h 16.7 km/h 24 % 0.0 mm
14:43 30.9 °C 8.0 °C 1014.8 hPa East 13.0 km/h 13.0 km/h 24 % 0.0 mm
14:48 30.9 °C 8.6 °C 1014.8 hPa ESE 10.3 km/h 10.3 km/h 25 % 0.0 mm
14:53 31.0 °C 8.7 °C 1014.8 hPa East 13.0 km/h 13.0 km/h 25 % 0.0 mm
14:58 31.1 °C 8.7 °C 1014.8 hPa ENE 14.8 km/h 14.8 km/h 25 % 0.0 mm
15:03 30.6 °C 8.3 °C 1014.8 hPa ESE 16.7 km/h 16.7 km/h 25 % 0.0 mm
15:08 30.8 °C 8.5 °C 1014.8 hPa SE 9.3 km/h 11.4 km/h 25 % 0.0 mm
15:13 30.7 °C 9.0 °C 1014.8 hPa ESE 13.0 km/h 13.0 km/h 26 % 0.0 mm
15:18 30.9 °C 9.2 °C 1014.8 hPa SE 14.8 km/h 14.8 km/h 26 % 0.0 mm
15:23 31.2 °C 9.4 °C 1014.8 hPa ESE 13.0 km/h 13.0 km/h 26 % 0.0 mm
15:28 30.9 °C 9.2 °C 1014.8 hPa ESE 16.7 km/h 16.7 km/h 26 % 0.0 mm
15:33 31.0 °C 9.2 °C 1013.8 hPa SE 13.0 km/h 13.0 km/h 26 % 0.0 mm
15:38 31.2 °C 9.4 °C 1013.8 hPa SSE 9.5 km/h 9.5 km/h 26 % 0.0 mm
15:43 31.0 °C 9.2 °C 1013.8 hPa SE 14.8 km/h 14.8 km/h 26 % 0.0 mm
15:48 30.9 °C 9.2 °C 1014.8 hPa East 13.0 km/h 14.0 km/h 26 % 0.0 mm
15:53 31.0 °C 9.2 °C 1014.8 hPa ESE 14.8 km/h 14.8 km/h 26 % 0.0 mm
15:58 30.9 °C 9.2 °C 1014.8 hPa NE 11.1 km/h 11.1 km/h 26 % 0.0 mm
16:03 31.1 °C 9.3 °C 1013.8 hPa East 9.7 km/h 9.7 km/h 26 % 0.0 mm
16:08 31.0 °C 9.2 °C 1013.8 hPa ESE 14.8 km/h 14.8 km/h 26 % 0.0 mm
16:13 31.1 °C 9.3 °C 1013.8 hPa ENE 7.9 km/h 7.9 km/h 26 % 0.0 mm
16:18 31.2 °C 9.4 °C 1013.8 hPa East 16.7 km/h 16.7 km/h 26 % 0.0 mm
16:23 31.2 °C 9.4 °C 1013.8 hPa ESE 11.1 km/h 11.1 km/h 26 % 0.0 mm
16:28 31.0 °C 9.2 °C 1013.8 hPa ENE 13.0 km/h 13.0 km/h 26 % 0.0 mm
16:33 31.0 °C 9.2 °C 1013.8 hPa ESE 11.1 km/h 11.1 km/h 26 % 0.0 mm
16:38 31.1 °C 9.3 °C 1013.8 hPa ESE 11.1 km/h 11.1 km/h 26 % 0.0 mm
16:43 30.9 °C 9.2 °C 1013.8 hPa ESE 11.1 km/h 11.1 km/h 26 % 0.0 mm
16:48 31.1 °C 9.3 °C 1013.8 hPa ENE 14.8 km/h 14.8 km/h 26 % 0.0 mm
16:53 31.4 °C 10.2 °C 1013.8 hPa East 9.7 km/h 9.7 km/h 27 % 0.0 mm
16:58 31.9 °C 9.4 °C 1013.8 hPa SE 7.4 km/h 7.4 km/h 25 % 0.0 mm
17:03 32.4 °C 9.2 °C 1013.8 hPa ESE 3.7 km/h 3.7 km/h 24 % 0.0 mm
17:08 32.0 °C 8.9 °C 1013.8 hPa SSE 3.7 km/h 3.7 km/h 24 % 0.0 mm
17:13 32.9 °C 9.7 °C 1013.8 hPa SW 3.7 km/h 3.7 km/h 24 % 0.0 mm
17:18 33.3 °C 9.3 °C 1013.8 hPa SW 9.3 km/h 9.3 km/h 23 % 0.0 mm
17:23 33.3 °C 9.3 °C 1013.8 hPa SW 5.3 km/h 5.3 km/h 23 % 0.0 mm
17:28 33.4 °C 9.4 °C 1013.8 hPa SW 9.5 km/h 9.5 km/h 23 % 0.0 mm
17:33 33.1 °C 9.2 °C 1013.8 hPa SW 11.9 km/h 11.9 km/h 23 % 0.0 mm
17:38 33.3 °C 9.3 °C 1013.8 hPa SSW 3.7 km/h 3.7 km/h 23 % 0.0 mm
17:43 33.3 °C 9.3 °C 1013.8 hPa WSW 7.9 km/h 7.9 km/h 23 % 0.0 mm
17:48 33.1 °C 9.2 °C 1013.8 hPa SW 12.2 km/h 12.2 km/h 23 % 0.0 mm
17:53 33.1 °C 8.6 °C 1013.8 hPa WSW 9.3 km/h 9.3 km/h 22 % 0.0 mm
17:58 33.5 °C 9.5 °C 1013.8 hPa WNW 3.7 km/h 3.7 km/h 23 % 0.0 mm
18:03 33.7 °C 9.7 °C 1013.8 hPa WSW 3.7 km/h 3.7 km/h 23 % 0.0 mm
18:08 33.5 °C 9.5 °C 1013.8 hPa SSW 5.6 km/h 6.9 km/h 23 % 0.0 mm
18:13 33.2 °C 8.6 °C 1013.8 hPa NW 7.4 km/h 7.4 km/h 22 % 0.0 mm
18:18 33.2 °C 9.3 °C 1013.8 hPa SW 5.8 km/h 5.8 km/h 23 % 0.0 mm
18:23 33.3 °C 9.3 °C 1013.8 hPa West 7.4 km/h 7.4 km/h 23 % 0.0 mm
18:28 33.0 °C 9.1 °C 1013.8 hPa SW 3.7 km/h 5.8 km/h 23 % 0.0 mm
18:33 33.0 °C 9.1 °C 1013.8 hPa SSW 5.6 km/h 5.6 km/h 23 % 0.0 mm
18:38 32.9 °C 9.0 °C 1013.8 hPa SW 7.4 km/h 7.4 km/h 23 % 0.0 mm
18:43 32.9 °C 9.0 °C 1013.8 hPa SW 4.7 km/h 5.3 km/h 23 % 0.0 mm
18:48 32.5 °C 8.7 °C 1013.8 hPa WSW 9.3 km/h 9.3 km/h 23 % 0.0 mm
18:53 32.3 °C 8.5 °C 1013.8 hPa West 4.2 km/h 4.2 km/h 23 % 0.0 mm
18:58 32.0 °C 8.3 °C 1013.8 hPa WSW 9.5 km/h 9.5 km/h 23 % 0.0 mm
19:03 32.0 °C 8.3 °C 1013.8 hPa SSW 5.3 km/h 5.3 km/h 23 % 0.0 mm
19:08 31.8 °C 8.7 °C 1013.8 hPa SSW 13.0 km/h 13.0 km/h 24 % 0.0 mm
19:13 31.6 °C 8.6 °C 1013.8 hPa WSW 14.8 km/h 14.8 km/h 24 % 0.0 mm
19:18 31.3 °C 8.3 °C 1013.8 hPa SW 9.3 km/h 9.3 km/h 24 % 0.0 mm
19:20 24.1 °C 9.7 °C 1013.8 hPa SW 3.2 km/h 4.8 km/h 40 % 0.0 mm
19:23 31.3 °C 8.3 °C 1013.8 hPa WSW 7.6 km/h 7.6 km/h 24 % 0.0 mm
19:28 31.1 °C 8.2 °C 1013.8 hPa WSW 7.4 km/h 7.4 km/h 24 % 0.0 mm
19:30 24.0 °C 9.6 °C 1013.8 hPa WSW 1.6 km/h 3.2 km/h 40 % 0.0 mm
19:33 31.0 °C 8.1 °C 1013.8 hPa SSW 9.3 km/h 9.3 km/h 24 % 0.0 mm
19:38 30.6 °C 8.3 °C 1013.8 hPa South 11.1 km/h 11.1 km/h 25 % 0.0 mm
19:40 23.9 °C 9.8 °C 1013.8 hPa Calm   1.6 km/h 41 % 0.0 mm
19:43 30.5 °C 8.2 °C 1013.8 hPa SSW 5.6 km/h 5.8 km/h 25 % 0.0 mm
19:48 30.3 °C 8.1 °C 1013.8 hPa WSW 3.9 km/h 6.9 km/h 25 % 0.0 mm
19:50 23.8 °C 9.8 °C 1013.8 hPa WSW 1.6 km/h 1.6 km/h 41 % 0.0 mm
19:53 30.1 °C 7.9 °C 1013.8 hPa WSW 3.9 km/h 6.9 km/h 25 % 0.0 mm
19:58 29.9 °C 8.3 °C 1013.8 hPa SW 4.7 km/h 4.7 km/h 26 % 0.0 mm
20:00 23.5 °C 9.5 °C 1013.8 hPa SW 1.6 km/h 3.2 km/h 41 % 0.0 mm
20:03 29.5 °C 8.0 °C 1013.8 hPa SSW 3.9 km/h 9.5 km/h 26 % 0.0 mm
20:08 29.4 °C 7.9 °C 1013.8 hPa SW 7.4 km/h 7.4 km/h 26 % 0.0 mm
20:10 23.2 °C 9.2 °C 1013.8 hPa SW 3.2 km/h 4.8 km/h 41 % 0.0 mm
20:13 29.3 °C 7.8 °C 1013.8 hPa SW 5.6 km/h 5.8 km/h 26 % 0.0 mm
20:18 29.2 °C 7.7 °C 1014.8 hPa SW 9.3 km/h 9.3 km/h 26 % 0.0 mm
20:20 23.0 °C 9.4 °C 1013.8 hPa SW 1.6 km/h 3.2 km/h 42 % 0.0 mm
20:23 28.9 °C 8.0 °C 1014.8 hPa SW 7.4 km/h 7.4 km/h 27 % 0.0 mm
20:28 28.8 °C 7.9 °C 1014.8 hPa WSW 6.9 km/h 6.9 km/h 27 % 0.0 mm
20:29 28.8 °C 7.9 °C 1014.8 hPa SW 7.4 km/h 7.4 km/h 27 % 0.0 mm
20:30 23.0 °C 9.4 °C 1013.8 hPa Calm   3.2 km/h 42 % 0.0 mm
20:34 28.6 °C 7.8 °C 1013.8 hPa SW 9.3 km/h 9.3 km/h 27 % 0.0 mm
20:39 28.4 °C 8.1 °C 1013.8 hPa SW 9.3 km/h 9.3 km/h 28 % 0.0 mm
20:40 22.9 °C 10.0 °C 1013.8 hPa WNW 1.6 km/h 3.2 km/h 44 % 0.0 mm
20:44 28.3 °C 8.1 °C 1013.8 hPa WSW 3.9 km/h 3.9 km/h 28 % 0.0 mm
20:49 28.1 °C 7.9 °C 1012.8 hPa SW 11.1 km/h 11.1 km/h 28 % 0.0 mm
20:50 22.8 °C 9.9 °C 1013.8 hPa Calm   1.6 km/h 44 % 0.0 mm
20:54 27.8 °C 7.6 °C 1012.8 hPa SW 7.4 km/h 7.4 km/h 28 % 0.0 mm
20:59 27.8 °C 7.6 °C 1012.8 hPa South 9.3 km/h 9.3 km/h 28 % 0.0 mm
21:00 22.9 °C 10.0 °C 1013.8 hPa Calm   1.6 km/h 44 % 0.0 mm
21:04 27.6 °C 7.9 °C 1013.8 hPa SW 5.6 km/h 5.6 km/h 29 % 0.0 mm
21:09 27.4 °C 7.8 °C 1013.8 hPa WSW 11.1 km/h 11.1 km/h 29 % 0.0 mm
21:10 22.8 °C 10.2 °C 1013.8 hPa West 1.6 km/h 1.6 km/h 45 % 0.0 mm
21:14 27.2 °C 7.6 °C 1013.8 hPa SW 9.3 km/h 9.3 km/h 29 % 0.0 mm
21:19 27.1 °C 7.6 °C 1013.8 hPa SW 5.6 km/h 5.6 km/h 29 % 0.0 mm
21:20 22.2 °C 9.7 °C 1013.8 hPa SW 3.2 km/h 3.2 km/h 45 % 0.0 mm
21:24 26.9 °C 7.8 °C 1013.8 hPa NW 5.0 km/h 5.0 km/h 30 % 0.0 mm
21:29 26.8 °C 7.8 °C 1013.8 hPa West 3.9 km/h 3.9 km/h 30 % 0.0 mm
21:30 22.3 °C 10.1 °C 1013.8 hPa WSW 1.6 km/h 3.2 km/h 46 % 0.0 mm
21:34 26.6 °C 7.6 °C 1013.8 hPa WSW 3.7 km/h 3.7 km/h 30 % 0.0 mm
21:39 26.5 °C 8.0 °C 1013.8 hPa Calm     31 % 0.0 mm
21:44 26.4 °C 8.4 °C 1013.8 hPa Calm     32 % 0.0 mm
21:49 26.3 °C 8.3 °C 1013.8 hPa SW 3.7 km/h 3.7 km/h 32 % 0.0 mm
21:50 22.6 °C 10.4 °C 1013.8 hPa WSW 1.6 km/h 3.2 km/h 46 % 0.0 mm
21:54 26.3 °C 8.3 °C 1013.8 hPa SSW 3.7 km/h 3.7 km/h 32 % 0.0 mm
21:59 26.2 °C 8.7 °C 1013.8 hPa SW 3.7 km/h 3.7 km/h 33 % 0.0 mm
22:00 22.4 °C 10.2 °C 1013.8 hPa WSW 1.6 km/h 3.2 km/h 46 % 0.0 mm
22:04 26.1 °C 8.6 °C 1013.8 hPa SW 3.5 km/h   33 % 0.0 mm
22:09 26.0 °C 8.5 °C 1013.8 hPa SW 3.9 km/h 3.9 km/h 33 % 0.0 mm
22:10 22.1 °C 9.9 °C 1012.8 hPa WSW 3.2 km/h 4.8 km/h 46 % 0.0 mm
22:14 25.9 °C 8.8 °C 1013.8 hPa SW 1.9 km/h 2.3 km/h 34 % 0.0 mm
22:19 25.8 °C 8.7 °C 1013.8 hPa SW 2.3 km/h   34 % 0.0 mm
22:20 21.8 °C 10.0 °C 1013.8 hPa SW 1.6 km/h 3.2 km/h 47 % 0.0 mm
22:24 25.7 °C 8.7 °C 1013.8 hPa SW 2.6 km/h 2.6 km/h 34 % 0.0 mm
22:29 25.6 °C 8.6 °C 1013.8 hPa SW 3.7 km/h 3.7 km/h 34 % 0.0 mm
22:30 21.7 °C 9.9 °C 1013.8 hPa Calm     47 % 0.0 mm
22:34 25.5 °C 8.9 °C 1013.8 hPa SW 3.2 km/h 3.2 km/h 35 % 0.0 mm
22:39 25.5 °C 8.9 °C 1013.8 hPa SW 2.6 km/h 2.6 km/h 35 % 0.0 mm
22:40 21.7 °C 9.9 °C 1012.8 hPa Calm     47 % 0.0 mm
22:44 25.4 °C 8.8 °C 1013.8 hPa SW 2.3 km/h 2.3 km/h 35 % 0.0 mm
22:49 25.3 °C 8.7 °C 1013.8 hPa SW 3.7 km/h 3.7 km/h 35 % 0.0 mm
22:50 21.0 °C 9.6 °C 1012.8 hPa WNW 1.6 km/h 3.2 km/h 48 % 0.0 mm
22:54 25.2 °C 9.1 °C 1013.8 hPa West 3.7 km/h 3.7 km/h 36 % 0.0 mm
22:59 25.1 °C 9.0 °C 1013.8 hPa WSW 3.7 km/h 3.7 km/h 36 % 0.0 mm
23:00 21.0 °C 9.6 °C 1012.8 hPa Calm   1.6 km/h 48 % 0.0 mm
23:04 25.0 °C 8.9 °C 1012.8 hPa WSW 3.7 km/h 3.7 km/h 36 % 0.0 mm
23:09 25.0 °C 8.9 °C 1012.8 hPa WSW 5.6 km/h 5.6 km/h 36 % 0.0 mm
23:10 20.9 °C 10.1 °C 1012.8 hPa Calm   1.6 km/h 50 % 0.0 mm
23:14 25.0 °C 9.3 °C 1012.8 hPa SW 3.9 km/h 3.9 km/h 37 % 0.0 mm
23:19 24.9 °C 9.6 °C 1013.8 hPa West 4.7 km/h 4.7 km/h 38 % 0.0 mm
23:20 20.8 °C 10.0 °C 1012.8 hPa NW 1.6 km/h 3.2 km/h 50 % 0.0 mm
23:24 24.9 °C 9.6 °C 1013.8 hPa West 3.7 km/h 3.7 km/h 38 % 0.0 mm
23:29 24.7 °C 9.4 °C 1013.8 hPa WSW 3.7 km/h 3.7 km/h 38 % 0.0 mm
23:30 20.9 °C 10.1 °C 1012.8 hPa WSW 1.6 km/h 3.2 km/h 50 % 0.0 mm
23:34 24.7 °C 9.8 °C 1013.8 hPa WSW 3.7 km/h 3.7 km/h 39 % 0.0 mm
23:39 24.6 °C 9.7 °C 1013.8 hPa WSW 3.9 km/h 3.9 km/h 39 % 0.0 mm
23:40 20.9 °C 10.4 °C 1012.8 hPa Calm   1.6 km/h 51 % 0.0 mm
23:44 24.6 °C 9.7 °C 1013.8 hPa WSW 3.7 km/h 3.7 km/h 39 % 0.0 mm
23:49 24.5 °C 9.6 °C 1013.8 hPa SW 3.7 km/h 3.7 km/h 39 % 0.0 mm
23:50 20.5 °C 10.0 °C 1012.8 hPa Calm   1.6 km/h 51 % 0.0 mm
23:54 24.4 °C 9.9 °C 1013.8 hPa SW 3.7 km/h 3.7 km/h 40 % 0.0 mm
23:59 24.3 °C 9.8 °C 1013.8 hPa SW 4.2 km/h 4.2 km/h 40 % 0.0 mm
Meteo Sesrovires
Elogis d' Weather Underground - 3.75 mb

Guio original per  Jim McMurry - jmcmurry@mwt.net Adaptat per a la plantilla per  Wim van der Kuil - Leuven-Template.eu

Trobareu la nostra informacio del temps tambe a:

Weather Underground

AWEKAS